createdAt,value
2022-08-08T00:01:00.072Z,42.21
2022-08-08T00:02:59.417Z,41.78
2022-08-08T00:05:44.343Z,41.18
2022-08-08T00:08:27.185Z,41.30
2022-08-08T00:11:27.913Z,40.99
2022-08-08T00:14:48.179Z,40.76
2022-08-08T00:17:27.320Z,39.99
2022-08-08T00:20:18.318Z,40.08
2022-08-08T00:22:51.626Z,39.71
2022-08-08T00:25:24.887Z,40.22
2022-08-08T00:28:33.991Z,40.22
2022-08-08T00:31:00.787Z,41.34
2022-08-08T00:34:18.515Z,41.42
2022-08-08T00:36:51.877Z,41.86
2022-08-08T00:41:09.294Z,41.43
2022-08-08T00:42:57.206Z,42.10
2022-08-08T00:45:57.977Z,41.91
2022-08-08T00:49:01.019Z,42.24
2022-08-08T00:52:03.325Z,42.52
2022-08-08T00:54:45.873Z,43.23
2022-08-08T00:57:57.225Z,42.43
2022-08-08T01:00:34.531Z,42.79
2022-08-08T01:04:02.740Z,43.00
2022-08-08T01:07:15.947Z,42.81
2022-08-08T01:10:24.188Z,42.80
2022-08-08T01:13:16.584Z,43.45
2022-08-08T01:16:17.357Z,44.06
2022-08-08T01:19:41.928Z,44.12
2022-08-08T01:22:25.393Z,43.78
2022-08-08T01:25:26.281Z,43.70
2022-08-08T01:28:28.041Z,44.13
2022-08-08T01:32:06.328Z,43.98
2022-08-08T01:34:41.452Z,44.01
2022-08-08T01:37:58.182Z,43.83
2022-08-08T01:41:16.139Z,45.00
2022-08-08T01:44:07.715Z,45.49
2022-08-08T01:46:52.842Z,46.20
2022-08-08T01:49:45.792Z,45.87
2022-08-08T01:53:54.126Z,46.49
2022-08-08T01:56:28.908Z,46.21
2022-08-08T01:58:46.968Z,46.55
2022-08-08T02:01:53.689Z,46.18
2022-08-08T02:04:18.972Z,46.30
2022-08-08T02:07:02.168Z,46.44
2022-08-08T02:10:29.758Z,46.44
2022-08-08T02:13:54.189Z,46.82
2022-08-08T02:16:23.155Z,46.73
2022-08-08T02:19:41.434Z,46.73
2022-08-08T02:22:13.491Z,46.02
2022-08-08T02:25:07.294Z,46.06
2022-08-08T02:28:01.087Z,46.03
2022-08-08T02:31:07.156Z,45.16
2022-08-08T02:34:33.317Z,45.17
2022-08-08T02:37:53.109Z,45.47
2022-08-08T02:40:16.827Z,45.40
2022-08-08T02:44:38.278Z,45.28
2022-08-08T02:46:12.845Z,45.38
2022-08-08T02:48:54.077Z,45.43
2022-08-08T02:52:35.309Z,44.84
2022-08-08T02:55:21.895Z,45.07
2022-08-08T02:58:16.233Z,45.12
2022-08-08T03:01:00.379Z,45.11
2022-08-08T03:05:04.760Z,44.35
2022-08-08T03:07:07.267Z,43.25
2022-08-08T03:09:43.793Z,39.77
2022-08-08T03:13:01.205Z,37.08
2022-08-08T03:16:05.806Z,35.13
2022-08-08T03:18:46.600Z,33.42
2022-08-08T03:21:15.660Z,32.03
2022-08-08T03:23:59.842Z,30.01
2022-08-08T03:26:42.191Z,29.37
2022-08-08T03:29:20.645Z,28.07
2022-08-08T03:32:07.026Z,26.94
2022-08-08T03:34:39.939Z,26.00
2022-08-08T03:38:55.055Z,24.95
2022-08-08T03:40:30.027Z,22.34
2022-08-08T03:43:16.844Z,21.50
2022-08-08T03:46:05.853Z,21.00
2022-08-08T03:49:09.044Z,20.64
2022-08-08T03:51:26.594Z,19.66
2022-08-08T03:54:09.746Z,19.35
2022-08-08T03:56:42.736Z,19.02
2022-08-08T03:59:22.698Z,22.21
2022-08-08T04:02:12.483Z,20.89
2022-08-08T04:04:38.329Z,20.93
2022-08-08T04:07:10.826Z,22.87
2022-08-08T04:10:03.147Z,22.76
2022-08-08T04:12:35.780Z,23.22
2022-08-08T04:15:38.235Z,23.40
2022-08-08T04:17:59.033Z,23.08
2022-08-08T04:20:28.208Z,23.39
2022-08-08T04:23:07.088Z,23.22
2022-08-08T04:25:46.280Z,22.46
2022-08-08T04:28:36.176Z,22.02
2022-08-08T04:31:04.729Z,21.13
2022-08-08T04:33:41.612Z,20.78
2022-08-08T04:36:10.274Z,20.56
2022-08-08T04:38:37.614Z,20.17
2022-08-08T04:41:21.611Z,20.99
2022-08-08T04:43:53.912Z,21.81
2022-08-08T04:46:25.081Z,21.09
2022-08-08T04:48:52.648Z,22.53
2022-08-08T04:51:27.915Z,22.85
2022-08-08T04:54:39.463Z,22.50
2022-08-08T04:56:55.268Z,23.10
2022-08-08T04:59:24.271Z,23.81
2022-08-08T05:02:00.907Z,23.72
2022-08-08T05:04:28.790Z,24.84
2022-08-08T05:06:55.963Z,24.87
2022-08-08T05:09:23.034Z,25.47
2022-08-08T05:11:57.299Z,25.48
2022-08-08T05:14:29.300Z,25.41
2022-08-08T05:17:01.885Z,25.33
2022-08-08T05:20:11.295Z,25.34
2022-08-08T05:22:23.656Z,25.97
2022-08-08T05:24:51.701Z,26.78
2022-08-08T05:27:21.786Z,26.98
2022-08-08T05:29:52.132Z,27.04
2022-08-08T05:32:27.371Z,27.15
2022-08-08T05:35:04.351Z,27.77
2022-08-08T05:37:49.329Z,28.17
2022-08-08T05:40:27.959Z,29.12
2022-08-08T05:43:38.254Z,28.40
2022-08-08T05:46:02.961Z,28.48
2022-08-08T05:48:34.739Z,28.12
2022-08-08T05:51:14.912Z,28.38
2022-08-08T05:54:24.430Z,27.41
2022-08-08T05:56:47.592Z,27.23
2022-08-08T06:00:00.214Z,26.97
2022-08-08T06:02:22.517Z,26.68
2022-08-08T06:04:55.100Z,26.25
2022-08-08T06:07:26.095Z,26.70
2022-08-08T06:10:02.175Z,26.43
2022-08-08T06:12:37.743Z,25.75
2022-08-08T06:15:51.000Z,25.26
2022-08-08T06:18:38.233Z,24.47
2022-08-08T06:21:27.861Z,25.06
2022-08-08T06:24:03.530Z,24.80
2022-08-08T06:26:45.515Z,23.67
2022-08-08T06:29:49.498Z,24.03
2022-08-08T06:32:54.022Z,23.56
2022-08-08T06:36:06.701Z,23.01
2022-08-08T06:38:50.605Z,23.14
2022-08-08T06:41:19.746Z,23.30
2022-08-08T06:43:57.126Z,21.63
2022-08-08T06:46:30.166Z,22.25
2022-08-08T06:49:00.437Z,22.08
2022-08-08T06:51:31.291Z,22.02
2022-08-08T06:54:17.514Z,21.82
2022-08-08T06:56:51.428Z,21.62
2022-08-08T06:59:21.087Z,21.35
2022-08-08T07:02:26.423Z,20.65
2022-08-08T07:05:03.124Z,20.76
2022-08-08T07:07:35.204Z,20.79
2022-08-08T07:10:12.414Z,20.54
2022-08-08T07:12:47.584Z,20.57
2022-08-08T07:16:10.540Z,20.74
2022-08-08T07:19:01.274Z,20.70
2022-08-08T07:21:49.746Z,20.69
2022-08-08T07:24:30.316Z,21.41
2022-08-08T07:27:05.712Z,20.37
2022-08-08T07:30:01.936Z,20.27
2022-08-08T07:32:25.576Z,20.73
2022-08-08T07:35:00.593Z,20.30
2022-08-08T07:37:56.024Z,21.13
2022-08-08T07:40:29.653Z,20.31
2022-08-08T07:43:08.688Z,20.25
2022-08-08T07:46:05.043Z,20.44
2022-08-08T07:48:31.628Z,20.95
2022-08-08T07:51:00.518Z,21.49
2022-08-08T07:54:01.842Z,20.80
2022-08-08T07:56:41.116Z,19.40
2022-08-08T07:59:14.415Z,20.04
2022-08-08T08:02:35.726Z,20.36
2022-08-08T08:04:46.690Z,19.71
2022-08-08T08:07:18.345Z,19.66
2022-08-08T08:09:49.801Z,19.18
2022-08-08T08:12:35.439Z,19.75
2022-08-08T08:15:07.412Z,19.37
2022-08-08T08:17:47.705Z,19.06
2022-08-08T08:20:19.227Z,19.59
2022-08-08T08:22:48.221Z,19.67
2022-08-08T08:25:19.135Z,18.88
2022-08-08T08:27:47.312Z,20.17
2022-08-08T08:30:45.171Z,19.24
2022-08-08T08:33:13.280Z,19.34
2022-08-08T08:36:18.660Z,19.47
2022-08-08T08:38:30.112Z,18.77
2022-08-08T08:41:17.191Z,17.54
2022-08-08T08:43:49.436Z,17.95
2022-08-08T08:46:17.636Z,18.42
2022-08-08T08:48:50.071Z,17.41
2022-08-08T08:51:19.788Z,17.09
2022-08-08T08:53:59.809Z,16.80
2022-08-08T08:56:32.226Z,16.35
2022-08-08T08:59:09.033Z,16.97
2022-08-08T09:01:51.035Z,17.03
2022-08-08T09:04:39.651Z,17.21
2022-08-08T09:07:20.020Z,17.49
2022-08-08T09:09:57.318Z,17.19
2022-08-08T09:12:34.032Z,17.40
2022-08-08T09:15:06.153Z,17.20
2022-08-08T09:17:55.256Z,17.37
2022-08-08T09:21:56.520Z,16.18
2022-08-08T09:23:17.678Z,16.52
2022-08-08T09:26:05.828Z,17.21
2022-08-08T09:28:39.715Z,17.09
2022-08-08T09:31:20.468Z,16.62
2022-08-08T09:34:14.877Z,17.88
2022-08-08T09:36:51.878Z,17.54
2022-08-08T09:39:42.359Z,16.82
2022-08-08T09:42:22.177Z,16.14
2022-08-08T09:45:04.034Z,17.12
2022-08-08T09:48:04.332Z,17.20
2022-08-08T09:50:32.413Z,17.07
2022-08-08T09:53:24.403Z,16.79
2022-08-08T09:56:04.986Z,16.59
2022-08-08T09:58:46.042Z,15.47
2022-08-08T10:01:58.117Z,15.98
2022-08-08T10:04:42.378Z,15.92
2022-08-08T10:07:07.663Z,17.67
2022-08-08T10:10:00.249Z,15.05
2022-08-08T10:12:53.722Z,15.55
2022-08-08T10:15:25.957Z,15.58
2022-08-08T10:18:09.163Z,14.75
2022-08-08T10:20:57.767Z,15.25
2022-08-08T10:23:50.812Z,13.92
2022-08-08T10:26:40.721Z,13.95
2022-08-08T10:29:21.122Z,15.56
2022-08-08T10:31:57.521Z,15.94
2022-08-08T10:34:28.641Z,16.06
2022-08-08T10:36:59.522Z,16.22
2022-08-08T10:39:31.632Z,15.34
2022-08-08T10:42:16.467Z,15.62
2022-08-08T10:44:45.706Z,15.69
2022-08-08T10:47:14.615Z,15.55
2022-08-08T10:50:01.625Z,15.84
2022-08-08T10:52:33.987Z,16.18
2022-08-08T10:55:06.806Z,16.67
2022-08-08T10:57:49.806Z,16.82
2022-08-08T11:00:27.409Z,16.69
2022-08-08T11:02:55.830Z,16.71
2022-08-08T11:06:00.439Z,16.13
2022-08-08T11:08:39.050Z,16.02
2022-08-08T11:12:04.870Z,16.61
2022-08-08T11:14:25.775Z,16.47
2022-08-08T11:16:54.826Z,16.82
2022-08-08T11:19:27.299Z,16.45
2022-08-08T11:21:56.465Z,16.67
2022-08-08T11:24:26.105Z,16.33
2022-08-08T11:26:58.032Z,16.68
2022-08-08T11:29:41.618Z,16.44
2022-08-08T11:32:17.575Z,15.41
2022-08-08T11:38:34.340Z,15.39
2022-08-08T11:40:26.750Z,15.20
2022-08-08T11:42:57.580Z,15.09
2022-08-08T11:45:48.330Z,15.28
2022-08-08T11:48:21.795Z,15.36
2022-08-08T11:50:55.635Z,15.78
2022-08-08T11:53:24.374Z,15.92
2022-08-08T11:55:55.427Z,16.11
2022-08-08T11:58:32.809Z,15.59
2022-08-08T12:01:00.118Z,15.38
2022-08-08T12:03:39.978Z,15.10
2022-08-08T12:06:18.332Z,15.00
2022-08-08T12:08:50.578Z,15.31
2022-08-08T12:11:30.989Z,15.19
2022-08-08T12:14:07.747Z,15.49
2022-08-08T12:16:51.540Z,15.04
2022-08-08T12:19:37.495Z,14.54
2022-08-08T12:22:13.883Z,14.71
2022-08-08T12:24:53.805Z,14.63
2022-08-08T12:27:26.874Z,15.12
2022-08-08T12:30:15.712Z,15.05
2022-08-08T12:32:46.476Z,15.18
2022-08-08T12:35:22.292Z,15.59
2022-08-08T12:38:06.526Z,15.74
2022-08-08T12:40:54.280Z,18.27
2022-08-08T12:43:32.823Z,19.92
2022-08-08T12:46:25.150Z,21.71
2022-08-08T12:49:21.897Z,21.09
2022-08-08T12:51:49.963Z,21.43
2022-08-08T12:54:36.467Z,22.39
2022-08-08T12:57:14.933Z,22.27
2022-08-08T13:00:05.392Z,22.48
2022-08-08T13:02:42.266Z,22.34
2022-08-08T13:05:27.017Z,20.60
2022-08-08T13:08:18.723Z,21.41
2022-08-08T13:10:56.188Z,21.00
2022-08-08T13:13:35.051Z,20.63
2022-08-08T13:16:37.849Z,22.04
2022-08-08T13:19:12.277Z,20.66
2022-08-08T13:21:53.429Z,20.37
2022-08-08T13:24:40.904Z,20.58
2022-08-08T13:27:15.840Z,19.96
2022-08-08T13:30:02.505Z,18.89
2022-08-08T13:32:35.200Z,18.67
2022-08-08T13:35:25.205Z,18.70
2022-08-08T13:38:08.115Z,19.26
2022-08-08T13:40:41.424Z,18.84
2022-08-08T13:43:15.894Z,19.97
2022-08-08T13:45:47.566Z,19.91
2022-08-08T13:48:16.554Z,19.66
2022-08-08T13:50:52.437Z,19.36
2022-08-08T13:53:34.041Z,19.29
2022-08-08T13:56:05.590Z,20.22
2022-08-08T13:58:33.264Z,19.69
2022-08-08T14:01:15.808Z,19.71
2022-08-08T14:03:55.536Z,20.31
2022-08-08T14:06:32.999Z,20.36
2022-08-08T14:09:18.360Z,20.42
2022-08-08T14:11:48.919Z,20.74
2022-08-08T14:14:20.550Z,20.88
2022-08-08T14:16:52.017Z,21.36
2022-08-08T14:19:22.855Z,21.22
2022-08-08T14:22:18.381Z,20.56
2022-08-08T14:24:49.335Z,21.24
2022-08-08T14:27:33.288Z,22.08
2022-08-08T14:30:17.899Z,22.68
2022-08-08T14:32:45.369Z,23.29
2022-08-08T14:35:13.716Z,23.36
2022-08-08T14:38:00.855Z,23.91
2022-08-08T14:40:33.162Z,23.22
2022-08-08T14:43:01.845Z,23.36
2022-08-08T14:46:02.339Z,23.19
2022-08-08T14:48:56.912Z,23.39
2022-08-08T14:51:31.186Z,23.12
2022-08-08T14:54:29.491Z,23.69
2022-08-08T14:57:04.115Z,23.77
2022-08-08T15:03:14.707Z,23.84
2022-08-08T15:05:53.906Z,23.09
2022-08-08T15:08:35.432Z,23.94
2022-08-08T15:11:10.460Z,24.01
2022-08-08T15:14:01.892Z,24.39
2022-08-08T15:16:28.435Z,24.19
2022-08-08T15:18:58.353Z,24.32
2022-08-08T15:21:30.264Z,24.55
2022-08-08T15:23:58.383Z,24.66
2022-08-08T15:26:28.893Z,24.31
2022-08-08T15:28:56.689Z,24.77
2022-08-08T15:32:02.806Z,25.03
2022-08-08T15:34:31.472Z,24.81
2022-08-08T15:37:03.351Z,24.74
2022-08-08T15:39:56.030Z,25.47
2022-08-08T15:42:32.216Z,25.56
2022-08-08T15:45:09.550Z,26.11
2022-08-08T15:47:36.497Z,25.43
2022-08-08T15:50:04.120Z,25.54
2022-08-08T15:52:35.119Z,25.67
2022-08-08T15:55:08.053Z,25.77
2022-08-08T15:57:39.989Z,25.93
2022-08-08T16:00:26.175Z,26.28
2022-08-08T16:02:55.647Z,26.27
2022-08-08T16:05:24.840Z,26.07
2022-08-08T16:08:03.619Z,25.58
2022-08-08T16:13:09.019Z,26.07
2022-08-08T16:13:29.998Z,25.80
2022-08-08T16:16:13.186Z,25.64
2022-08-08T16:18:53.154Z,25.58
2022-08-08T16:21:32.353Z,25.81
2022-08-08T16:24:02.385Z,25.47
2022-08-08T16:26:35.201Z,26.10
2022-08-08T16:29:10.420Z,25.84
2022-08-08T16:31:48.508Z,25.93
2022-08-08T16:34:19.991Z,26.32
2022-08-08T16:36:50.199Z,25.88
2022-08-08T16:40:00.085Z,26.34
2022-08-08T16:42:05.085Z,26.72
2022-08-08T16:44:33.965Z,26.66
2022-08-08T16:47:17.579Z,26.17
2022-08-08T16:49:44.873Z,26.77
2022-08-08T16:55:02.807Z,27.17
2022-08-08T16:55:33.898Z,27.90
2022-08-08T16:58:16.264Z,27.40
2022-08-08T17:00:49.012Z,28.04
2022-08-08T17:03:25.464Z,28.52
2022-08-08T17:06:36.567Z,28.59
2022-08-08T17:08:58.476Z,28.34
2022-08-08T17:11:39.193Z,28.78
2022-08-08T17:14:19.410Z,29.37
2022-08-08T17:17:01.581Z,29.36
2022-08-08T17:19:42.541Z,29.67
2022-08-08T17:22:10.502Z,29.78
2022-08-08T17:24:39.339Z,30.00
2022-08-08T17:27:07.682Z,29.84
2022-08-08T17:29:43.911Z,30.22
2022-08-08T17:32:28.826Z,30.12
2022-08-08T17:35:54.851Z,30.38
2022-08-08T17:37:51.704Z,30.78
2022-08-08T17:40:25.326Z,31.39
2022-08-08T17:42:53.122Z,31.45
2022-08-08T17:45:23.163Z,31.08
2022-08-08T17:47:51.134Z,32.13
2022-08-08T17:50:18.378Z,31.93
2022-08-08T17:52:47.680Z,32.66
2022-08-08T17:56:07.048Z,32.51
2022-08-08T17:58:02.290Z,32.72
2022-08-08T18:00:30.623Z,32.83
2022-08-08T18:03:07.272Z,32.70
2022-08-08T18:05:49.411Z,33.28
2022-08-08T18:08:37.911Z,33.47
2022-08-08T18:11:16.030Z,32.67
2022-08-08T18:13:47.936Z,32.67
2022-08-08T18:16:16.812Z,33.91
2022-08-08T18:18:52.681Z,32.85
2022-08-08T18:21:58.753Z,33.68
2022-08-08T18:24:19.554Z,32.93
2022-08-08T18:26:54.465Z,33.75
2022-08-08T18:29:40.753Z,34.44
2022-08-08T18:32:35.589Z,34.76
2022-08-08T18:35:15.380Z,34.36
2022-08-08T18:37:48.546Z,34.16
2022-08-08T18:40:16.044Z,34.48
2022-08-08T18:42:45.715Z,34.11
2022-08-08T18:45:44.731Z,34.71
2022-08-08T18:48:07.633Z,34.53
2022-08-08T18:50:39.652Z,34.49
2022-08-08T18:53:17.483Z,34.56
2022-08-08T18:55:49.210Z,34.77
2022-08-08T18:58:16.231Z,34.40
2022-08-08T19:00:50.219Z,34.52
2022-08-08T19:03:17.216Z,35.30
2022-08-08T19:06:05.486Z,35.38
2022-08-08T19:08:32.406Z,35.06
2022-08-08T19:11:01.733Z,35.64
2022-08-08T19:13:53.504Z,36.28
2022-08-08T19:16:19.434Z,36.81
2022-08-08T19:18:57.698Z,35.25
2022-08-08T19:21:33.484Z,35.71
2022-08-08T19:24:05.417Z,35.89
2022-08-08T19:26:37.517Z,36.33
2022-08-08T19:29:06.235Z,36.33
2022-08-08T19:31:52.307Z,36.83
2022-08-08T19:34:36.762Z,36.79
2022-08-08T19:37:16.033Z,37.16
2022-08-08T19:39:45.561Z,36.87
2022-08-08T19:42:13.693Z,36.79
2022-08-08T19:44:45.785Z,36.86
2022-08-08T19:47:14.643Z,37.80
2022-08-08T19:49:43.058Z,38.37
2022-08-08T19:52:11.875Z,38.15
2022-08-08T19:54:40.369Z,38.50
2022-08-08T19:57:16.075Z,38.45
2022-08-08T19:59:44.174Z,38.54
2022-08-08T20:02:11.669Z,37.67
2022-08-08T20:04:38.847Z,38.74
2022-08-08T20:08:29.419Z,39.61
2022-08-08T20:09:57.135Z,39.41
2022-08-08T20:12:32.599Z,39.39
2022-08-08T20:15:14.309Z,39.77
2022-08-08T20:17:47.878Z,40.68
2022-08-08T20:20:19.933Z,39.72
2022-08-08T20:22:54.207Z,39.71
2022-08-08T20:25:26.368Z,39.80
2022-08-08T20:28:29.633Z,40.13
2022-08-08T20:31:00.080Z,40.32
2022-08-08T20:33:27.071Z,39.84
2022-08-08T20:36:17.049Z,40.69
2022-08-08T20:38:44.239Z,40.27
2022-08-08T20:41:17.490Z,39.85
2022-08-08T20:43:51.798Z,40.22
2022-08-08T20:46:20.266Z,40.90
2022-08-08T20:48:48.596Z,41.19
2022-08-08T20:51:17.188Z,40.94
2022-08-08T20:53:59.423Z,41.24
2022-08-08T20:56:35.698Z,41.09
2022-08-08T20:59:15.944Z,40.72
2022-08-08T21:02:07.051Z,40.56
2022-08-08T21:04:35.408Z,40.79
2022-08-08T21:07:08.474Z,40.80
2022-08-08T21:09:48.548Z,41.04
2022-08-08T21:12:32.373Z,40.55
2022-08-08T21:15:07.096Z,40.84
2022-08-08T21:17:36.804Z,41.43
2022-08-08T21:20:05.301Z,41.26
2022-08-08T21:22:32.243Z,41.63
2022-08-08T21:24:59.182Z,41.22
2022-08-08T21:27:38.845Z,41.60
2022-08-08T21:30:19.330Z,41.63
2022-08-08T21:32:51.194Z,41.01
2022-08-08T21:36:13.999Z,41.62
2022-08-08T21:38:16.434Z,41.42
2022-08-08T21:40:56.147Z,41.75
2022-08-08T21:43:34.342Z,42.02
2022-08-08T21:48:05.671Z,42.32
2022-08-08T21:48:53.027Z,41.28
2022-08-08T21:54:32.650Z,41.47
2022-08-08T21:54:36.070Z,41.84
2022-08-08T21:56:59.126Z,41.33
2022-08-08T21:59:28.348Z,41.62
2022-08-08T22:02:11.044Z,41.93
2022-08-08T22:04:39.482Z,41.74
2022-08-08T22:07:39.927Z,41.72
2022-08-08T22:10:09.610Z,41.79
2022-08-08T22:12:37.645Z,42.26
2022-08-08T22:15:07.078Z,42.46
2022-08-08T22:17:45.076Z,42.70
2022-08-08T22:20:23.817Z,42.54
2022-08-08T22:22:55.264Z,42.72
2022-08-08T22:25:24.969Z,42.89
2022-08-08T22:28:02.992Z,42.87
2022-08-08T22:30:42.412Z,43.12
2022-08-08T22:34:10.895Z,43.50
2022-08-08T22:36:04.401Z,43.35
2022-08-08T22:38:39.508Z,44.00
2022-08-08T22:41:25.331Z,44.04
2022-08-08T22:44:02.435Z,44.75
2022-08-08T22:46:34.579Z,44.54
2022-08-08T22:49:09.003Z,44.88
2022-08-08T22:51:45.757Z,45.31
2022-08-08T22:54:30.756Z,45.43
2022-08-08T22:57:01.652Z,45.59
2022-08-08T22:59:36.224Z,45.76
2022-08-08T23:02:15.634Z,46.02
2022-08-08T23:04:46.742Z,46.03
2022-08-08T23:09:55.313Z,46.19
2022-08-08T23:12:39.777Z,46.04
2022-08-08T23:16:36.595Z,46.45
2022-08-08T23:17:58.364Z,46.15
2022-08-08T23:20:27.141Z,46.58
2022-08-08T23:22:54.686Z,46.96
2022-08-08T23:25:22.394Z,47.02
2022-08-08T23:27:49.266Z,46.92
2022-08-08T23:30:21.935Z,46.17
2022-08-08T23:32:49.464Z,46.99
2022-08-08T23:35:17.315Z,47.06
2022-08-08T23:38:01.860Z,47.20
2022-08-08T23:40:31.195Z,47.07
2022-08-08T23:42:58.252Z,47.26
2022-08-08T23:48:59.924Z,47.04
2022-08-08T23:49:05.626Z,47.06
2022-08-08T23:51:03.779Z,46.68
2022-08-08T23:54:05.561Z,47.08
2022-08-08T23:56:24.164Z,47.40
2022-08-08T23:58:59.605Z,47.22
